Time;durP1;ratioP1;P1;durP2;ratioP2;P2;SDS_P1;SDS_P2;PMS_P1;PMS_P2;Temp;Humidity;BMP_temperature;BMP_pressure;BME280_temperature;BME280_humidity;BME280_pressure;Samples;Min_cycle;Max_cycle;Signal;HPM_P1;HPM_P2
2023/07/14 00:01:52;;;;;;;8.15;7.45;;;;;;;;;;5100202;28;20061;-72
2023/07/14 00:04:36;;;;;;;10.30;8.57;;;;;;;;;;5100019;28;20036;-75
2023/07/14 00:07:03;;;;;;;9.30;8.40;;;;;;;;;;5089220;28;20032;-75
2023/07/14 00:09:30;;;;;;;11.13;8.73;;;;;;;;;;5089960;28;20043;-75
2023/07/14 00:11:56;;;;;;;9.25;7.88;;;;;;;;;;5090254;28;20040;-76
2023/07/14 00:14:22;;;;;;;7.82;6.47;;;;;;;;;;5090242;28;20151;-75
2023/07/14 00:16:48;;;;;;;8.63;7.93;;;;;;;;;;5090034;28;20032;-76
2023/07/14 00:19:14;;;;;;;8.18;7.50;;;;;;;;;;5088868;28;20032;-77
2023/07/14 00:21:40;;;;;;;8.70;7.60;;;;;;;;;;5088726;28;20506;-76
2023/07/14 00:24:13;;;;;;;8.30;7.60;;;;;;;;;;5090308;28;20040;-77
2023/07/14 00:26:40;;;;;;;8.25;7.50;;;;;;;;;;5088756;28;20032;-76
2023/07/14 00:29:33;;;;;;;8.18;7.32;;;;;;;;;;5089008;28;20577;-75
2023/07/14 00:31:59;;;;;;;8.30;7.43;;;;;;;;;;5087481;28;20403;-76
2023/07/14 00:34:25;;;;;;;11.43;7.78;;;;;;;;;;5093852;28;20093;-74
2023/07/14 00:36:52;;;;;;;8.13;7.43;;;;;;;;;;5092694;28;20577;-76
2023/07/14 00:39:18;;;;;;;8.85;7.93;;;;;;;;;;5094107;28;20036;-76
2023/07/14 00:41:44;;;;;;;7.75;6.97;;;;;;;;;;5093547;28;20035;-76
2023/07/14 00:44:13;;;;;;;7.78;7.03;;;;;;;;;;5075965;28;20395;-76
2023/07/14 00:46:41;;;;;;;7.70;7.10;;;;;;;;;;5092507;28;20106;-75
2023/07/14 00:49:10;;;;;;;9.40;6.85;;;;;;;;;;5093889;28;20039;-78
2023/07/14 00:51:36;;;;;;;9.15;7.47;;;;;;;;;;5075441;28;20032;-77
2023/07/14 00:54:02;;;;;;;8.27;7.47;;;;;;;;;;5092444;28;20043;-76
2023/07/14 00:56:34;;;;;;;9.43;7.40;;;;;;;;;;5093534;28;20127;-77
2023/07/14 00:59:00;;;;;;;7.07;6.35;;;;;;;;;;5093547;28;20067;-76
2023/07/14 01:01:27;;;;;;;7.57;6.97;;;;;;;;;;5075322;28;20036;-76
2023/07/14 01:03:57;;;;;;;10.98;7.47;;;;;;;;;;5058685;28;20525;-77
2023/07/14 01:06:38;;;;;;;8.20;6.70;;;;;;;;;;5075209;28;20028;-76
2023/07/14 01:09:11;;;;;;;7.75;7.10;;;;;;;;;;5092177;28;20039;-76
2023/07/14 01:11:37;;;;;;;6.85;6.13;;;;;;;;;;5075219;28;20109;-77
2023/07/14 01:14:06;;;;;;;6.05;5.55;;;;;;;;;;5093307;28;20422;-77
2023/07/14 01:16:33;;;;;;;6.53;5.93;;;;;;;;;;5093109;28;20092;-77
2023/07/14 01:18:59;;;;;;;7.13;6.53;;;;;;;;;;5092210;28;20137;-77
2023/07/14 01:21:25;;;;;;;7.95;6.20;;;;;;;;;;5093094;28;20180;-78
2023/07/14 01:23:57;;;;;;;7.60;6.28;;;;;;;;;;5091836;28;20394;-77
2023/07/14 01:26:23;;;;;;;5.82;5.32;;;;;;;;;;5092297;28;20031;-78
2023/07/14 01:28:49;;;;;;;6.85;5.38;;;;;;;;;;5105010;28;20071;-78
2023/07/14 01:31:17;;;;;;;6.28;5.75;;;;;;;;;;5117450;28;20044;-78
2023/07/14 01:33:43;;;;;;;5.55;5.07;;;;;;;;;;5079275;28;20032;-79
2023/07/14 01:36:10;;;;;;;5.57;5.10;;;;;;;;;;5095810;28;20044;-78
2023/07/14 01:38:36;;;;;;;6.25;5.30;;;;;;;;;;5092823;28;20043;-79
2023/07/14 01:41:03;;;;;;;5.65;5.22;;;;;;;;;;5092963;28;20032;-77
2023/07/14 01:43:29;;;;;;;5.88;5.28;;;;;;;;;;5091986;28;20074;-78
2023/07/14 01:45:56;;;;;;;5.68;5.28;;;;;;;;;;5075150;28;20039;-78
2023/07/14 01:48:25;;;;;;;5.85;5.30;;;;;;;;;;5092078;28;20055;-78
2023/07/14 01:50:53;;;;;;;5.78;5.28;;;;;;;;;;5093081;28;20036;-78
2023/07/14 01:53:39;;;;;;;5.13;4.72;;;;;;;;;;5092879;28;20127;-79
2023/07/14 01:56:05;;;;;;;5.65;4.40;;;;;;;;;;5091232;28;20196;-79
2023/07/14 01:58:35;;;;;;;5.00;4.57;;;;;;;;;;5092747;28;20032;-78
2023/07/14 02:01:02;;;;;;;4.72;4.32;;;;;;;;;;5091612;28;20035;-80
2023/07/14 02:03:33;;;;;;;4.65;4.35;;;;;;;;;;5074788;28;20524;-79
2023/07/14 02:05:59;;;;;;;4.18;3.88;;;;;;;;;;5092232;28;20453;-78
2023/07/14 02:08:25;;;;;;;4.88;4.28;;;;;;;;;;5092662;28;20024;-77
2023/07/14 02:10:52;;;;;;;4.15;3.85;;;;;;;;;;5090837;28;20036;-80
2023/07/14 02:13:18;;;;;;;6.43;4.45;;;;;;;;;;5074717;28;20518;-81
2023/07/14 02:15:44;;;;;;;4.57;4.18;;;;;;;;;;5073909;28;20055;-81
2023/07/14 02:18:12;;;;;;;4.30;3.90;;;;;;;;;;5091209;28;20028;-81
2023/07/14 02:20:38;;;;;;;4.60;4.20;;;;;;;;;;5092282;28;20032;-81
2023/07/14 02:23:05;;;;;;;3.70;3.40;;;;;;;;;;5092085;28;20032;-81
2023/07/14 02:25:51;;;;;;;3.55;3.35;;;;;;;;;;5075741;28;20075;-81
2023/07/14 02:28:17;;;;;;;5.35;3.88;;;;;;;;;;5091963;28;20075;-83
2023/07/14 02:30:44;;;;;;;5.75;3.97;;;;;;;;;;5091656;28;20043;-81
2023/07/14 02:33:19;;;;;;;4.43;3.75;;;;;;;;;;5093090;28;20059;-81
2023/07/14 02:35:51;;;;;;;4.07;3.78;;;;;;;;;;5093244;28;20044;-82
2023/07/14 02:38:17;;;;;;;4.07;3.78;;;;;;;;;;5093292;28;20447;-81
2023/07/14 02:40:49;;;;;;;3.40;3.20;;;;;;;;;;5092896;28;20036;-83
2023/07/14 02:43:16;;;;;;;4.00;3.63;;;;;;;;;;5092958;28;20063;-82
2023/07/14 02:45:53;;;;;;;8.05;3.55;;;;;;;;;;5092391;28;20028;-82
2023/07/14 02:48:21;;;;;;;3.80;3.50;;;;;;;;;;5094524;28;20036;-82
2023/07/14 02:50:47;;;;;;;8.50;4.28;;;;;;;;;;5093905;28;20043;-82
2023/07/14 02:53:14;;;;;;;4.38;3.90;;;;;;;;;;5095248;28;20040;-82
2023/07/14 02:55:40;;;;;;;3.88;3.58;;;;;;;;;;5097608;28;20563;-83
2023/07/14 02:58:06;;;;;;;7.15;3.60;;;;;;;;;;5101281;28;20114;-83
2023/07/14 03:00:33;;;;;;;4.25;3.95;;;;;;;;;;5104052;28;20036;-81
2023/07/14 03:02:59;;;;;;;4.45;4.05;;;;;;;;;;5106332;28;20043;-84
2023/07/14 03:05:25;;;;;;;4.28;3.97;;;;;;;;;;5108761;28;20039;-83
2023/07/14 03:07:51;;;;;;;4.88;4.22;;;;;;;;;;5109253;28;20028;-84
2023/07/14 03:10:17;;;;;;;4.57;4.25;;;;;;;;;;5106858;28;20118;-83
2023/07/14 03:12:43;;;;;;;3.88;3.58;;;;;;;;;;5109672;28;20055;-85
2023/07/14 03:15:10;;;;;;;4.32;4.03;;;;;;;;;;5111425;28;20062;-85
2023/07/14 03:17:35;;;;;;;5.32;4.80;;;;;;;;;;5113579;28;20032;-85
2023/07/14 03:20:02;;;;;;;4.55;4.15;;;;;;;;;;5115505;28;20043;-84
2023/07/14 03:22:30;;;;;;;4.65;4.25;;;;;;;;;;5116827;28;20008;-85
2023/07/14 03:24:58;;;;;;;6.28;4.80;;;;;;;;;;5117146;28;20052;-84
2023/07/14 03:27:24;;;;;;;5.63;5.03;;;;;;;;;;5099402;28;20043;-86
2023/07/14 03:29:50;;;;;;;4.85;4.53;;;;;;;;;;5106938;28;20036;-86
2023/07/14 03:32:16;;;;;;;5.72;4.72;;;;;;;;;;5091989;28;20036;-85
2023/07/14 03:34:42;;;;;;;6.68;4.80;;;;;;;;;;5105722;28;20043;-86
2023/07/14 03:37:08;;;;;;;7.45;4.32;;;;;;;;;;5093206;28;20035;-86
2023/07/14 03:39:34;;;;;;;4.22;3.92;;;;;;;;;;5106634;28;20032;-84
2023/07/14 03:42:01;;;;;;;5.72;4.50;;;;;;;;;;5105758;28;20107;-85
2023/07/14 03:44:27;;;;;;;4.82;4.35;;;;;;;;;;5107408;28;20028;-85
2023/07/14 03:46:53;;;;;;;6.38;4.93;;;;;;;;;;5107920;28;20043;-85
2023/07/14 03:49:19;;;;;;;5.72;5.22;;;;;;;;;;5110226;28;20032;-84
2023/07/14 03:51:48;;;;;;;6.40;5.63;;;;;;;;;;5113280;28;20059;-86
2023/07/14 03:54:14;;;;;;;5.85;4.18;;;;;;;;;;5112909;28;20032;-82
2023/07/14 03:56:41;;;;;;;4.32;3.88;;;;;;;;;;5115561;28;20019;-86
2023/07/14 03:59:07;;;;;;;4.38;4.07;;;;;;;;;;5116014;28;20036;-86
2023/07/14 04:01:33;;;;;;;4.45;4.15;;;;;;;;;;5115251;28;20045;-82
2023/07/14 04:03:59;;;;;;;4.40;4.10;;;;;;;;;;5113466;28;20048;-86
2023/07/14 04:06:25;;;;;;;4.90;4.50;;;;;;;;;;5111465;28;20038;-85
2023/07/14 04:08:52;;;;;;;4.05;3.78;;;;;;;;;;5114415;28;20096;-86
2023/07/14 04:11:18;;;;;;;5.53;3.97;;;;;;;;;;5121994;28;20024;-85
2023/07/14 04:13:45;;;;;;;4.35;4.03;;;;;;;;;;5121945;28;20018;-85
2023/07/14 04:16:11;;;;;;;5.88;5.47;;;;;;;;;;5121924;28;20084;-86
2023/07/14 04:18:37;;;;;;;5.75;5.25;;;;;;;;;;5119579;28;20028;-87
2023/07/14 04:21:06;;;;;;;6.25;5.68;;;;;;;;;;5114705;28;20036;-87
2023/07/14 04:23:32;;;;;;;8.50;5.25;;;;;;;;;;5108261;28;20036;-86
2023/07/14 04:25:58;;;;;;;6.80;6.07;;;;;;;;;;5112239;28;20127;-84
2023/07/14 04:28:24;;;;;;;5.40;4.68;;;;;;;;;;5112015;28;20046;-85
2023/07/14 04:30:57;;;;;;;5.90;5.40;;;;;;;;;;5115515;28;20036;-85
2023/07/14 04:33:23;;;;;;;4.82;3.85;;;;;;;;;;5116360;28;20015;-85
2023/07/14 04:35:49;;;;;;;4.30;3.92;;;;;;;;;;5113561;28;20039;-86
2023/07/14 04:38:15;;;;;;;3.78;3.58;;;;;;;;;;5106467;28;20510;-85
2023/07/14 04:40:41;;;;;;;4.72;4.38;;;;;;;;;;5105132;28;20047;-84
2023/07/14 04:43:08;;;;;;;4.75;2.97;;;;;;;;;;5093264;28;20032;-86
2023/07/14 04:45:37;;;;;;;3.42;3.20;;;;;;;;;;5114687;28;20036;-82
2023/07/14 04:48:04;;;;;;;3.80;3.50;;;;;;;;;;5113307;28;20039;-86
2023/07/14 04:50:30;;;;;;;4.07;3.50;;;;;;;;;;5116397;28;20009;-85
2023/07/14 04:52:56;;;;;;;5.57;4.25;;;;;;;;;;5116591;28;20067;-85
2023/07/14 04:55:23;;;;;;;7.93;5.45;;;;;;;;;;5117215;28;20059;-85
2023/07/14 04:57:49;;;;;;;6.43;4.00;;;;;;;;;;5114915;28;20020;-85
2023/07/14 05:00:17;;;;;;;4.50;3.95;;;;;;;;;;5111640;28;20064;-85
2023/07/14 05:02:43;;;;;;;8.25;4.10;;;;;;;;;;5115122;28;20118;-87
2023/07/14 05:05:13;;;;;;;4.20;3.88;;;;;;;;;;5114916;28;20118;-85
2023/07/14 05:07:39;;;;;;;4.30;3.45;;;;;;;;;;5114335;28;20058;-86
2023/07/14 05:10:05;;;;;;;4.35;3.60;;;;;;;;;;5112878;28;20032;-86
2023/07/14 05:12:32;;;;;;;6.43;3.00;;;;;;;;;;5113196;28;20549;-87
2023/07/14 05:15:05;;;;;;;5.25;3.13;;;;;;;;;;5096952;28;20036;-85
2023/07/14 05:17:34;;;;;;;4.82;2.85;;;;;;;;;;5098221;28;20048;-86
2023/07/14 05:20:00;;;;;;;6.13;3.00;;;;;;;;;;5116245;28;20040;-86
2023/07/14 05:22:26;;;;;;;4.57;3.28;;;;;;;;;;5114881;28;20013;-87
2023/07/14 05:24:53;;;;;;;4.70;3.30;;;;;;;;;;5114272;28;20028;-86
2023/07/14 05:27:19;;;;;;;4.18;2.70;;;;;;;;;;5112078;28;20016;-86
2023/07/14 05:29:46;;;;;;;3.05;2.83;;;;;;;;;;5082779;28;20044;-86
2023/07/14 05:32:12;;;;;;;4.57;2.80;;;;;;;;;;5113438;28;20035;-87
2023/07/14 05:34:39;;;;;;;5.68;2.50;;;;;;;;;;5113370;28;20039;-85
2023/07/14 05:37:05;;;;;;;4.03;2.38;;;;;;;;;;5114976;28;20035;-85
2023/07/14 05:39:31;;;;;;;2.85;2.50;;;;;;;;;;5115498;28;20032;-86
2023/07/14 05:41:58;;;;;;;2.60;2.40;;;;;;;;;;5115372;28;20040;-86
2023/07/14 05:44:24;;;;;;;3.25;2.40;;;;;;;;;;5108830;28;20038;-85
2023/07/14 05:46:50;;;;;;;2.88;2.50;;;;;;;;;;5107979;28;20478;-86
2023/07/14 05:49:16;;;;;;;7.15;4.00;;;;;;;;;;5105400;28;20031;-84
2023/07/14 05:51:42;;;;;;;5.57;5.05;;;;;;;;;;5108148;28;20032;-86
2023/07/14 05:54:08;;;;;;;2.78;2.67;;;;;;;;;;5105939;28;20039;-85
2023/07/14 05:56:34;;;;;;;3.33;2.33;;;;;;;;;;5105765;28;20131;-81
2023/07/14 05:59:00;;;;;;;2.50;2.40;;;;;;;;;;5109894;28;20036;-84
2023/07/14 06:01:26;;;;;;;7.20;2.10;;;;;;;;;;5109859;28;20024;-85
2023/07/14 06:03:52;;;;;;;2.55;2.25;;;;;;;;;;5081105;28;20119;-84
2023/07/14 06:06:18;;;;;;;2.78;2.47;;;;;;;;;;5062127;28;20171;-84
2023/07/14 06:08:45;;;;;;;2.60;2.40;;;;;;;;;;5079730;28;20071;-84
2023/07/14 06:11:11;;;;;;;2.38;2.28;;;;;;;;;;5064217;28;20043;-84
2023/07/14 06:13:37;;;;;;;2.92;2.00;;;;;;;;;;5097163;28;20036;-84
2023/07/14 06:16:03;;;;;;;2.17;1.98;;;;;;;;;;5113984;28;20048;-86
2023/07/14 06:18:29;;;;;;;2.50;1.73;;;;;;;;;;5098564;28;20405;-84
2023/07/14 06:20:56;;;;;;;4.38;1.90;;;;;;;;;;5097412;28;20040;-82
2023/07/14 06:23:22;;;;;;;2.10;1.83;;;;;;;;;;5100187;28;20052;-84
2023/07/14 06:25:48;;;;;;;1.85;1.83;;;;;;;;;;5100393;28;20032;-84
2023/07/14 06:28:14;;;;;;;2.13;2.03;;;;;;;;;;5100949;28;20084;-84
2023/07/14 06:30:40;;;;;;;3.10;2.00;;;;;;;;;;5105481;28;20036;-82
2023/07/14 06:33:06;;;;;;;2.20;2.10;;;;;;;;;;5108579;28;20062;-81
2023/07/14 06:35:32;;;;;;;2.40;2.20;;;;;;;;;;5105721;28;20051;-81
2023/07/14 06:37:58;;;;;;;4.03;2.47;;;;;;;;;;5090692;28;20084;-84
2023/07/14 06:40:24;;;;;;;2.03;1.92;;;;;;;;;;5105538;28;20036;-83
2023/07/14 06:42:50;;;;;;;2.10;2.00;;;;;;;;;;5098366;28;20028;-84
2023/07/14 06:45:17;;;;;;;2.20;2.10;;;;;;;;;;5095660;28;20040;-86
2023/07/14 06:47:43;;;;;;;2.00;1.90;;;;;;;;;;5096728;28;20084;-86
2023/07/14 06:50:09;;;;;;;2.30;2.20;;;;;;;;;;5112591;28;20051;-84
2023/07/14 06:52:38;;;;;;;2.22;1.98;;;;;;;;;;5114554;28;20057;-84
2023/07/14 06:55:07;;;;;;;4.20;1.80;;;;;;;;;;5105828;28;20044;-81
2023/07/14 06:57:33;;;;;;;2.35;1.90;;;;;;;;;;5103028;28;20035;-81
2023/07/14 06:59:59;;;;;;;1.70;1.60;;;;;;;;;;5092600;28;20510;-83
2023/07/14 07:02:26;;;;;;;2.22;1.50;;;;;;;;;;5092408;28;20036;-82
2023/07/14 07:04:52;;;;;;;1.63;1.52;;;;;;;;;;5092304;28;20035;-81
2023/07/14 07:07:18;;;;;;;1.73;1.60;;;;;;;;;;5097225;28;20047;-83
2023/07/14 07:09:44;;;;;;;1.50;1.40;;;;;;;;;;5102259;28;20590;-81
2023/07/14 07:12:10;;;;;;;1.52;1.48;;;;;;;;;;5104313;28;20051;-83
2023/07/14 07:14:36;;;;;;;1.75;1.38;;;;;;;;;;5105728;28;20063;-85
2023/07/14 07:17:02;;;;;;;2.38;1.70;;;;;;;;;;5108759;28;20089;-85
2023/07/14 07:19:31;;;;;;;2.20;1.45;;;;;;;;;;5110692;28;20058;-88
2023/07/14 07:21:57;;;;;;;1.90;1.73;;;;;;;;;;5112360;28;20044;-84
2023/07/14 07:24:23;;;;;;;2.22;2.03;;;;;;;;;;5111683;28;20058;-86
2023/07/14 07:26:49;;;;;;;3.72;1.90;;;;;;;;;;5098265;28;20047;-87
2023/07/14 07:29:15;;;;;;;6.15;2.13;;;;;;;;;;5115073;28;20064;-84
2023/07/14 07:31:41;;;;;;;2.70;1.70;;;;;;;;;;5116089;28;20028;-85
2023/07/14 07:34:08;;;;;;;6.60;2.05;;;;;;;;;;5113052;28;20036;-85
2023/07/14 07:36:34;;;;;;;2.10;1.98;;;;;;;;;;5111936;28;20044;-83
2023/07/14 07:39:00;;;;;;;2.05;1.95;;;;;;;;;;5106317;28;20031;-83
2023/07/14 07:41:27;;;;;;;2.75;1.80;;;;;;;;;;5099927;28;20040;-84
2023/07/14 07:43:53;;;;;;;2.35;2.15;;;;;;;;;;5099273;28;20050;-84
2023/07/14 07:46:21;;;;;;;2.35;2.20;;;;;;;;;;5096595;28;20118;-84
2023/07/14 07:48:47;;;;;;;3.90;2.10;;;;;;;;;;5095020;28;20051;-83
2023/07/14 07:51:13;;;;;;;2.40;2.20;;;;;;;;;;5094841;28;20091;-85
2023/07/14 07:53:39;;;;;;;2.70;2.50;;;;;;;;;;5095615;28;20067;-83
2023/07/14 07:56:05;;;;;;;3.58;2.50;;;;;;;;;;5093768;28;20043;-82
2023/07/14 07:58:31;;;;;;;4.03;2.63;;;;;;;;;;5094727;28;20028;-82
2023/07/14 08:01:02;;;;;;;2.72;2.53;;;;;;;;;;5094708;28;20066;-84
2023/07/14 08:03:28;;;;;;;3.08;2.88;;;;;;;;;;5098240;28;20032;-83
2023/07/14 08:06:00;;;;;;;2.60;2.40;;;;;;;;;;5098018;28;20032;-80
2023/07/14 08:08:26;;;;;;;2.92;2.72;;;;;;;;;;5097006;28;20521;-83
2023/07/14 08:10:52;;;;;;;3.28;3.00;;;;;;;;;;5096772;28;20044;-83
2023/07/14 08:13:18;;;;;;;2.78;2.58;;;;;;;;;;5097897;28;20056;-82
2023/07/14 08:15:44;;;;;;;2.95;2.75;;;;;;;;;;5099248;28;20069;-84
2023/07/14 08:18:10;;;;;;;2.80;2.60;;;;;;;;;;5098958;28;20031;-84
2023/07/14 08:20:40;;;;;;;2.50;2.40;;;;;;;;;;5097196;28;20497;-84
2023/07/14 08:23:07;;;;;;;3.08;2.80;;;;;;;;;;5098915;28;20071;-83
2023/07/14 08:25:33;;;;;;;2.80;2.60;;;;;;;;;;5095492;28;20490;-82
2023/07/14 08:27:59;;;;;;;3.60;2.65;;;;;;;;;;5094190;28;20100;-84
2023/07/14 08:30:25;;;;;;;2.88;2.67;;;;;;;;;;5095565;28;20040;-83
2023/07/14 08:32:51;;;;;;;3.97;2.53;;;;;;;;;;5094594;28;20093;-84
2023/07/14 08:35:17;;;;;;;2.60;2.40;;;;;;;;;;5095233;28;20044;-83
2023/07/14 08:37:43;;;;;;;3.10;2.90;;;;;;;;;;5093823;28;20517;-83
2023/07/14 08:40:11;;;;;;;2.80;2.42;;;;;;;;;;5092479;28;20032;-83
2023/07/14 08:42:39;;;;;;;2.80;2.60;;;;;;;;;;5093528;28;20109;-83
2023/07/14 08:45:14;;;;;;;2.42;2.30;;;;;;;;;;5092929;28;20031;-84
2023/07/14 08:47:44;;;;;;;3.00;2.80;;;;;;;;;;5092913;28;20074;-83
2023/07/14 08:50:16;;;;;;;2.53;2.30;;;;;;;;;;5093294;28;20036;-82
2023/07/14 08:52:42;;;;;;;3.35;2.40;;;;;;;;;;5078076;28;20035;-84
2023/07/14 08:55:16;;;;;;;7.13;2.80;;;;;;;;;;5096981;28;20044;-81
2023/07/14 08:57:43;;;;;;;4.32;2.83;;;;;;;;;;5097181;28;20141;-83
2023/07/14 09:00:13;;;;;;;2.70;2.50;;;;;;;;;;5100121;28;20032;-85
2023/07/14 09:02:41;;;;;;;8.13;2.85;;;;;;;;;;5106515;28;20039;-86
2023/07/14 09:05:13;;;;;;;3.10;2.90;;;;;;;;;;5105104;28;20047;-83
2023/07/14 09:07:39;;;;;;;6.00;3.50;;;;;;;;;;5096603;28;20063;-83
2023/07/14 09:10:05;;;;;;;5.82;3.97;;;;;;;;;;5096566;28;20035;-82
2023/07/14 09:12:36;;;;;;;4.28;3.78;;;;;;;;;;5097113;28;20048;-82
2023/07/14 09:15:06;;;;;;;20.33;4.15;;;;;;;;;;5095656;28;20058;-83
2023/07/14 09:17:36;;;;;;;4.95;4.20;;;;;;;;;;5096571;28;20035;-82
2023/07/14 09:20:02;;;;;;;4.80;4.40;;;;;;;;;;5097380;28;20043;-83
2023/07/14 09:22:33;;;;;;;4.40;4.05;;;;;;;;;;5098038;28;20433;-83
2023/07/14 09:25:00;;;;;;;4.63;4.22;;;;;;;;;;5096689;28;20042;-83
2023/07/14 09:27:26;;;;;;;4.32;4.03;;;;;;;;;;5096671;28;20040;-81
2023/07/14 09:29:52;;;;;;;10.93;4.97;;;;;;;;;;5106464;28;20246;-81
2023/07/14 09:32:24;;;;;;;5.97;4.20;;;;;;;;;;5119393;28;20028;-82
2023/07/14 09:35:11;;;;;;;5.53;4.18;;;;;;;;;;5109809;28;20092;-84
2023/07/14 09:37:53;;;;;;;4.20;3.85;;;;;;;;;;5095856;28;20036;-83
2023/07/14 09:40:21;;;;;;;4.00;3.47;;;;;;;;;;5108418;28;20036;-83
2023/07/14 09:42:48;;;;;;;4.80;3.20;;;;;;;;;;5075008;28;20042;-80
2023/07/14 09:45:19;;;;;;;3.50;3.00;;;;;;;;;;5101204;28;20375;-81
2023/07/14 09:47:45;;;;;;;;;;;;;;;;;;5095189;28;20036;-83
2023/07/14 09:50:14;;;;;;;3.10;2.90;;;;;;;;;;5095446;28;19919;-83
2023/07/14 09:53:09;;;;;;;2.78;2.58;;;;;;;;;;5077419;28;20040;-83
2023/07/14 09:55:48;;;;;;;10.38;3.15;;;;;;;;;;5085497;28;20092;-84
2023/07/14 09:58:14;;;;;;;4.70;3.47;;;;;;;;;;5100797;28;20550;-83
2023/07/14 10:00:41;;;;;;;4.38;3.17;;;;;;;;;;5103296;28;20055;-83
2023/07/14 10:03:11;;;;;;;5.13;3.70;;;;;;;;;;5097169;28;20032;-82
2023/07/14 10:05:43;;;;;;;8.60;3.70;;;;;;;;;;5098266;28;20414;-82
2023/07/14 10:08:22;;;;;;;5.97;3.30;;;;;;;;;;5096913;28;20061;-83
2023/07/14 10:10:48;;;;;;;3.30;3.00;;;;;;;;;;5098102;28;20406;-83
2023/07/14 10:13:16;;;;;;;5.00;3.53;;;;;;;;;;5097192;28;20067;-83
2023/07/14 10:15:42;;;;;;;3.30;3.00;;;;;;;;;;5096913;28;20052;-83
2023/07/14 10:18:12;;;;;;;3.80;3.38;;;;;;;;;;5095554;28;20126;-82
2023/07/14 10:20:39;;;;;;;4.50;2.97;;;;;;;;;;5098458;28;20642;-83
2023/07/14 10:23:12;;;;;;;5.72;2.90;;;;;;;;;;5095759;28;20028;-83
2023/07/14 10:25:38;;;;;;;4.95;3.30;;;;;;;;;;5095593;28;20578;-83
2023/07/14 10:28:11;;;;;;;9.18;3.17;;;;;;;;;;5096314;28;20028;-84
2023/07/14 10:30:57;;;;;;;3.78;3.47;;;;;;;;;;5095904;28;20510;-83
2023/07/14 10:33:25;;;;;;;5.28;3.45;;;;;;;;;;5077014;28;20042;-84
2023/07/14 10:35:55;;;;;;;6.82;3.20;;;;;;;;;;5094146;28;20200;-83
2023/07/14 10:38:40;;;;;;;3.28;2.95;;;;;;;;;;5093617;28;20032;-84
2023/07/14 10:41:07;;;;;;;5.30;3.30;;;;;;;;;;5094204;28;20067;-84
2023/07/14 10:43:36;;;;;;;5.22;4.82;;;;;;;;;;5096701;28;20036;-84
2023/07/14 10:46:19;;;;;;;4.80;3.92;;;;;;;;;;5096895;28;20043;-83
2023/07/14 10:49:05;;;;;;;4.30;3.90;;;;;;;;;;5096862;28;20082;-83
2023/07/14 10:51:34;;;;;;;4.43;4.07;;;;;;;;;;5095175;28;20075;-82
2023/07/14 10:54:03;;;;;;;4.05;3.70;;;;;;;;;;5094596;28;20492;-83
2023/07/14 10:56:40;;;;;;;6.32;3.67;;;;;;;;;;5095806;28;20043;-84
2023/07/14 10:59:15;;;;;;;4.10;3.80;;;;;;;;;;5095613;28;20127;-82
2023/07/14 11:01:43;;;;;;;3.85;3.55;;;;;;;;;;5096586;28;20528;-83
2023/07/14 11:04:28;;;;;;;4.03;3.72;;;;;;;;;;5094506;28;20126;-83
2023/07/14 11:06:54;;;;;;;4.03;3.65;;;;;;;;;;5097099;28;20045;-83
2023/07/14 11:09:20;;;;;;;5.60;4.35;;;;;;;;;;5095660;28;20032;-84
2023/07/14 11:11:46;;;;;;;7.95;3.85;;;;;;;;;;5094931;28;20052;-83
2023/07/14 11:14:31;;;;;;;4.75;4.30;;;;;;;;;;5094752;28;20036;-84
2023/07/14 11:17:05;;;;;;;6.40;3.55;;;;;;;;;;5095647;28;20051;-82
2023/07/14 11:19:44;;;;;;;4.20;3.90;;;;;;;;;;5094046;28;20036;-83
2023/07/14 11:22:29;;;;;;;5.40;3.80;;;;;;;;;;5077054;28;20039;-83
2023/07/14 11:25:05;;;;;;;8.48;4.32;;;;;;;;;;5094342;28;20031;-82
2023/07/14 11:27:35;;;;;;;4.70;4.30;;;;;;;;;;5094446;28;20406;-83
2023/07/14 11:30:27;;;;;;;8.27;4.78;;;;;;;;;;5094489;28;20169;-82
2023/07/14 11:32:57;;;;;;;6.53;3.80;;;;;;;;;;5092796;28;20526;-84
2023/07/14 11:35:30;;;;;;;3.75;3.45;;;;;;;;;;5095003;28;20044;-84
2023/07/14 11:38:03;;;;;;;3.88;3.00;;;;;;;;;;5078187;28;20111;-82
2023/07/14 11:40:30;;;;;;;3.55;3.30;;;;;;;;;;5095777;28;20036;-84
2023/07/14 11:42:57;;;;;;;3.15;2.90;;;;;;;;;;5095298;28;20032;-82
2023/07/14 11:45:24;;;;;;;3.72;2.75;;;;;;;;;;5094479;28;20040;-83
2023/07/14 11:47:50;;;;;;;3.80;2.38;;;;;;;;;;5094536;28;20028;-83
2023/07/14 11:50:16;;;;;;;3.03;2.80;;;;;;;;;;5096800;28;20036;-82
2023/07/14 11:53:01;;;;;;;5.68;2.80;;;;;;;;;;5096012;28;20036;-84
2023/07/14 11:55:28;;;;;;;4.32;2.75;;;;;;;;;;5095274;28;20048;-82
2023/07/14 11:58:09;;;;;;;3.95;2.67;;;;;;;;;;5095081;28;20032;-84
2023/07/14 12:00:41;;;;;;;4.20;3.38;;;;;;;;;;5093885;28;20036;-81
2023/07/14 12:03:26;;;;;;;6.85;3.33;;;;;;;;;;5076015;28;20516;-83
2023/07/14 12:06:10;;;;;;;3.92;2.40;;;;;;;;;;5094051;28;20410;-82
2023/07/14 12:08:38;;;;;;;2.97;2.72;;;;;;;;;;5094165;28;20105;-83
2023/07/14 12:11:04;;;;;;;4.18;2.65;;;;;;;;;;5105094;28;20032;-83
2023/07/14 12:13:33;;;;;;;5.65;2.80;;;;;;;;;;5116114;28;20044;-84
2023/07/14 12:16:00;;;;;;;2.75;2.42;;;;;;;;;;5108610;28;20059;-84
2023/07/14 12:18:33;;;;;;;2.55;2.40;;;;;;;;;;5106248;28;20066;-81
2023/07/14 12:21:14;;;;;;;2.50;2.40;;;;;;;;;;5096776;28;20040;-83
2023/07/14 12:23:48;;;;;;;3.05;2.50;;;;;;;;;;5093300;28;20050;-82
2023/07/14 12:26:18;;;;;;;2.80;2.60;;;;;;;;;;5092289;28;20051;-84
2023/07/14 12:28:44;;;;;;;2.42;2.22;;;;;;;;;;5096471;28;20122;-83
2023/07/14 12:31:11;;;;;;;2.70;2.50;;;;;;;;;;5096414;28;20548;-83
2023/07/14 12:33:37;;;;;;;2.70;2.50;;;;;;;;;;5063272;28;20036;-82
2023/07/14 12:36:04;;;;;;;6.35;3.22;;;;;;;;;;5097265;28;20421;-83
2023/07/14 12:38:30;;;;;;;3.67;3.42;;;;;;;;;;5097666;28;20127;-83
2023/07/14 12:40:56;;;;;;;2.97;2.80;;;;;;;;;;5100782;28;20150;-82
2023/07/14 12:43:25;;;;;;;3.22;3.03;;;;;;;;;;5108965;28;20145;-83
2023/07/14 12:45:51;;;;;;;3.05;2.85;;;;;;;;;;5106582;28;20089;-83
2023/07/14 12:48:17;;;;;;;8.93;3.10;;;;;;;;;;5099191;28;20039;-85
2023/07/14 12:50:43;;;;;;;2.53;2.42;;;;;;;;;;5096944;28;20147;-83
2023/07/14 12:53:13;;;;;;;3.22;3.03;;;;;;;;;;5097018;28;20518;-82
2023/07/14 12:55:39;;;;;;;3.67;2.97;;;;;;;;;;5095850;28;20044;-83
2023/07/14 12:58:07;;;;;;;2.88;2.67;;;;;;;;;;5095726;28;20088;-83
2023/07/14 13:00:33;;;;;;;3.35;3.05;;;;;;;;;;5096891;28;20047;-85
2023/07/14 13:03:00;;;;;;;3.33;3.05;;;;;;;;;;5096996;28;20032;-83
2023/07/14 13:05:33;;;;;;;3.60;3.15;;;;;;;;;;5096567;28;20047;-83
2023/07/14 13:07:59;;;;;;;3.20;3.00;;;;;;;;;;5096538;28;20123;-83
2023/07/14 13:10:26;;;;;;;3.70;3.10;;;;;;;;;;5095644;28;20055;-83
2023/07/14 13:12:53;;;;;;;7.65;3.20;;;;;;;;;;5096023;28;20135;-81
2023/07/14 13:15:19;;;;;;;4.60;3.55;;;;;;;;;;5094557;28;20036;-84
2023/07/14 13:17:45;;;;;;;3.40;3.20;;;;;;;;;;5094779;28;20403;-82
2023/07/14 13:20:17;;;;;;;3.63;3.30;;;;;;;;;;5077085;28;20647;-81
2023/07/14 13:22:43;;;;;;;3.72;3.42;;;;;;;;;;5094935;28;20066;-82
2023/07/14 13:25:18;;;;;;;4.95;3.55;;;;;;;;;;5096063;28;20043;-82
2023/07/14 13:27:46;;;;;;;9.93;3.53;;;;;;;;;;5096406;28;20199;-83
2023/07/14 13:30:32;;;;;;;6.63;3.30;;;;;;;;;;5096379;28;20528;-83
2023/07/14 13:32:58;;;;;;;5.20;3.40;;;;;;;;;;5095008;28;20032;-82
2023/07/14 13:35:25;;;;;;;5.53;3.60;;;;;;;;;;5094164;28;20123;-84
2023/07/14 13:38:01;;;;;;;2.90;2.72;;;;;;;;;;5095355;28;20036;-83
2023/07/14 13:40:31;;;;;;;4.03;3.30;;;;;;;;;;5095950;28;20039;-81
2023/07/14 13:42:58;;;;;;;3.75;2.78;;;;;;;;;;5095923;28;20032;-81
2023/07/14 13:45:37;;;;;;;4.20;3.30;;;;;;;;;;5095181;28;20056;-82
2023/07/14 13:48:03;;;;;;;5.78;3.20;;;;;;;;;;5095209;28;20063;-82
2023/07/14 13:50:30;;;;;;;3.90;3.00;;;;;;;;;;5096344;28;20056;-82
2023/07/14 13:52:56;;;;;;;3.53;3.33;;;;;;;;;;5095386;28;20040;-80
2023/07/14 13:55:24;;;;;;;4.00;3.00;;;;;;;;;;5096199;28;20050;-82
2023/07/14 13:57:50;;;;;;;3.65;3.35;;;;;;;;;;5096214;28;20028;-82
2023/07/14 14:00:18;;;;;;;3.65;2.83;;;;;;;;;;5096620;28;20471;-82
2023/07/14 14:02:44;;;;;;;5.97;3.30;;;;;;;;;;5095242;28;20032;-82
2023/07/14 14:05:18;;;;;;;8.50;3.60;;;;;;;;;;5094089;28;20059;-83
2023/07/14 14:07:47;;;;;;;6.00;3.65;;;;;;;;;;5095220;28;20032;-83
2023/07/14 14:10:15;;;;;;;4.45;3.08;;;;;;;;;;5094732;28;20040;-82
2023/07/14 14:12:41;;;;;;;8.00;3.38;;;;;;;;;;5093587;28;20514;-81
2023/07/14 14:15:09;;;;;;;5.97;3.42;;;;;;;;;;5095140;28;20039;-83
2023/07/14 14:17:38;;;;;;;8.50;3.55;;;;;;;;;;5095118;28;20028;-82
2023/07/14 14:20:06;;;;;;;4.60;3.55;;;;;;;;;;5094135;28;20036;-83
2023/07/14 14:22:32;;;;;;;6.28;3.58;;;;;;;;;;5097185;28;20028;-84
2023/07/14 14:24:58;;;;;;;5.47;3.88;;;;;;;;;;5096138;28;20630;-84
2023/07/14 14:27:24;;;;;;;3.70;3.40;;;;;;;;;;5096872;28;20125;-82
2023/07/14 14:29:50;;;;;;;6.88;3.25;;;;;;;;;;5097560;28;20032;-83
2023/07/14 14:32:17;;;;;;;4.13;3.50;;;;;;;;;;5098628;28;20047;-82
2023/07/14 14:34:44;;;;;;;2.97;2.78;;;;;;;;;;5097480;28;20106;-83
2023/07/14 14:37:10;;;;;;;3.72;3.25;;;;;;;;;;5095020;28;20039;-81
2023/07/14 14:39:36;;;;;;;3.72;3.20;;;;;;;;;;5095657;28;20184;-82
2023/07/14 14:42:03;;;;;;;3.40;3.10;;;;;;;;;;5094520;28;20032;-83
2023/07/14 14:44:29;;;;;;;3.40;3.10;;;;;;;;;;5094558;28;20035;-84
2023/07/14 14:46:55;;;;;;;3.10;2.90;;;;;;;;;;5094817;28;20032;-83
2023/07/14 14:49:21;;;;;;;6.75;3.72;;;;;;;;;;5093521;28;20440;-83
2023/07/14 14:51:48;;;;;;;5.50;3.67;;;;;;;;;;5101304;28;20019;-83